sensor_id;sensor_type;location;lat;lon;timestamp;temperature;humidity
37560;DHT22;23398;50.928;7.084;2022-07-29T00:01:32;21.30;52.20
37560;DHT22;23398;50.928;7.084;2022-07-29T00:03:57;21.30;52.30
37560;DHT22;23398;50.928;7.084;2022-07-29T00:06:23;21.30;52.30
37560;DHT22;23398;50.928;7.084;2022-07-29T00:08:49;21.20;52.40
37560;DHT22;23398;50.928;7.084;2022-07-29T00:11:15;21.20;52.70
37560;DHT22;23398;50.928;7.084;2022-07-29T00:13:40;21.20;53.10
37560;DHT22;23398;50.928;7.084;2022-07-29T00:16:06;21.20;53.40
37560;DHT22;23398;50.928;7.084;2022-07-29T00:18:32;21.20;53.60
37560;DHT22;23398;50.928;7.084;2022-07-29T00:20:57;21.10;54.10
37560;DHT22;23398;50.928;7.084;2022-07-29T00:23:23;21.20;54.10
37560;DHT22;23398;50.928;7.084;2022-07-29T00:25:48;21.20;53.80
37560;DHT22;23398;50.928;7.084;2022-07-29T00:28:14;21.50;53.90
37560;DHT22;23398;50.928;7.084;2022-07-29T00:30:39;21.20;53.90
37560;DHT22;23398;50.928;7.084;2022-07-29T00:33:08;21.10;54.00
37560;DHT22;23398;50.928;7.084;2022-07-29T00:35:34;21.10;54.10
37560;DHT22;23398;50.928;7.084;2022-07-29T00:38:09;21.10;54.10
37560;DHT22;23398;50.928;7.084;2022-07-29T00:40:35;21.10;54.00
37560;DHT22;23398;50.928;7.084;2022-07-29T00:43:00;21.10;53.80
37560;DHT22;23398;50.928;7.084;2022-07-29T00:45:27;21.10;54.00
37560;DHT22;23398;50.928;7.084;2022-07-29T00:47:52;21.10;54.00
37560;DHT22;23398;50.928;7.084;2022-07-29T00:50:18;21.10;53.90
37560;DHT22;23398;50.928;7.084;2022-07-29T00:52:44;21.20;54.10
37560;DHT22;23398;50.928;7.084;2022-07-29T00:55:13;21.10;54.20
37560;DHT22;23398;50.928;7.084;2022-07-29T00:57:40;21.10;54.40
37560;DHT22;23398;50.928;7.084;2022-07-29T01:00:08;21.10;54.80
37560;DHT22;23398;50.928;7.084;2022-07-29T01:02:34;21.00;54.90
37560;DHT22;23398;50.928;7.084;2022-07-29T01:05:01;21.00;54.80
37560;DHT22;23398;50.928;7.084;2022-07-29T01:07:28;21.00;55.10
37560;DHT22;23398;50.928;7.084;2022-07-29T01:09:55;21.00;55.20
37560;DHT22;23398;50.928;7.084;2022-07-29T01:12:28;21.00;55.10
37560;DHT22;23398;50.928;7.084;2022-07-29T01:14:58;20.90;55.40
37560;DHT22;23398;50.928;7.084;2022-07-29T01:17:54;20.90;55.30
37560;DHT22;23398;50.928;7.084;2022-07-29T01:34:23;20.70;55.80
37560;DHT22;23398;50.928;7.084;2022-07-29T01:37:18;20.70;56.00
37560;DHT22;23398;50.928;7.084;2022-07-29T01:39:45;20.70;56.60
37560;DHT22;23398;50.928;7.084;2022-07-29T01:45:08;20.70;56.50
37560;DHT22;23398;50.928;7.084;2022-07-29T01:48:18;20.60;56.20
37560;DHT22;23398;50.928;7.084;2022-07-29T01:50:44;20.60;56.20
37560;DHT22;23398;50.928;7.084;2022-07-29T01:53:12;20.70;56.50
37560;DHT22;23398;50.928;7.084;2022-07-29T01:55:42;20.60;56.50
37560;DHT22;23398;50.928;7.084;2022-07-29T01:58:11;20.70;57.40
37560;DHT22;23398;50.928;7.084;2022-07-29T02:00:38;20.70;57.00
37560;DHT22;23398;50.928;7.084;2022-07-29T02:03:08;20.70;57.10
37560;DHT22;23398;50.928;7.084;2022-07-29T02:05:35;20.70;57.10
37560;DHT22;23398;50.928;7.084;2022-07-29T02:08:02;20.70;57.80
37560;DHT22;23398;50.928;7.084;2022-07-29T02:10:30;20.70;57.90
37560;DHT22;23398;50.928;7.084;2022-07-29T02:12:57;21.00;58.20
37560;DHT22;23398;50.928;7.084;2022-07-29T02:15:25;20.80;57.80
37560;DHT22;23398;50.928;7.084;2022-07-29T02:17:56;20.80;57.60
37560;DHT22;23398;50.928;7.084;2022-07-29T02:20:25;20.70;57.20
37560;DHT22;23398;50.928;7.084;2022-07-29T02:22:52;20.80;57.00
37560;DHT22;23398;50.928;7.084;2022-07-29T02:25:19;20.70;57.00
37560;DHT22;23398;50.928;7.084;2022-07-29T02:27:47;20.70;56.90
37560;DHT22;23398;50.928;7.084;2022-07-29T02:30:13;20.80;57.00
37560;DHT22;23398;50.928;7.084;2022-07-29T02:32:40;20.70;57.00
37560;DHT22;23398;50.928;7.084;2022-07-29T02:35:08;20.70;56.70
37560;DHT22;23398;50.928;7.084;2022-07-29T02:37:36;20.70;56.50
37560;DHT22;23398;50.928;7.084;2022-07-29T02:40:03;20.60;56.40
37560;DHT22;23398;50.928;7.084;2022-07-29T02:42:31;20.50;56.50
37560;DHT22;23398;50.928;7.084;2022-07-29T02:44:57;20.50;56.80
37560;DHT22;23398;50.928;7.084;2022-07-29T02:50:12;20.40;57.10
37560;DHT22;23398;50.928;7.084;2022-07-29T02:52:56;20.30;57.70
37560;DHT22;23398;50.928;7.084;2022-07-29T02:55:29;20.20;57.40
37560;DHT22;23398;50.928;7.084;2022-07-29T02:58:21;20.10;57.80
37560;DHT22;23398;50.928;7.084;2022-07-29T03:00:50;20.00;58.40
37560;DHT22;23398;50.928;7.084;2022-07-29T03:03:18;19.90;57.90
37560;DHT22;23398;50.928;7.084;2022-07-29T03:05:44;19.90;58.10
37560;DHT22;23398;50.928;7.084;2022-07-29T03:08:11;20.00;58.40
37560;DHT22;23398;50.928;7.084;2022-07-29T03:10:39;19.80;58.40
37560;DHT22;23398;50.928;7.084;2022-07-29T03:13:06;19.70;58.60
37560;DHT22;23398;50.928;7.084;2022-07-29T03:15:33;19.70;58.80
37560;DHT22;23398;50.928;7.084;2022-07-29T03:17:59;19.70;58.50
37560;DHT22;23398;50.928;7.084;2022-07-29T03:20:26;19.60;58.30
37560;DHT22;23398;50.928;7.084;2022-07-29T03:22:51;19.60;58.50
37560;DHT22;23398;50.928;7.084;2022-07-29T03:25:19;19.60;58.60
37560;DHT22;23398;50.928;7.084;2022-07-29T03:27:46;19.60;58.80
37560;DHT22;23398;50.928;7.084;2022-07-29T03:30:13;19.50;59.20
37560;DHT22;23398;50.928;7.084;2022-07-29T03:32:39;19.50;59.40
37560;DHT22;23398;50.928;7.084;2022-07-29T03:35:05;19.50;59.20
37560;DHT22;23398;50.928;7.084;2022-07-29T03:37:31;19.50;59.20
37560;DHT22;23398;50.928;7.084;2022-07-29T03:40:00;19.60;59.80
37560;DHT22;23398;50.928;7.084;2022-07-29T03:42:30;19.50;59.30
37560;DHT22;23398;50.928;7.084;2022-07-29T03:44:57;19.60;59.40
37560;DHT22;23398;50.928;7.084;2022-07-29T03:47:26;19.50;59.30
37560;DHT22;23398;50.928;7.084;2022-07-29T03:49:59;19.60;59.80
37560;DHT22;23398;50.928;7.084;2022-07-29T03:52:26;19.60;60.10
37560;DHT22;23398;50.928;7.084;2022-07-29T03:54:52;19.70;59.90
37560;DHT22;23398;50.928;7.084;2022-07-29T03:57:20;19.60;60.00
37560;DHT22;23398;50.928;7.084;2022-07-29T03:59:46;19.60;60.30
37560;DHT22;23398;50.928;7.084;2022-07-29T04:02:12;19.80;59.90
37560;DHT22;23398;50.928;7.084;2022-07-29T04:04:38;19.60;59.40
37560;DHT22;23398;50.928;7.084;2022-07-29T04:07:04;19.60;59.20
37560;DHT22;23398;50.928;7.084;2022-07-29T04:09:30;19.70;59.20
37560;DHT22;23398;50.928;7.084;2022-07-29T04:11:56;19.70;59.10
37560;DHT22;23398;50.928;7.084;2022-07-29T04:14:22;20.00;59.30
37560;DHT22;23398;50.928;7.084;2022-07-29T04:16:47;19.80;59.00
37560;DHT22;23398;50.928;7.084;2022-07-29T04:19:13;19.80;59.00
37560;DHT22;23398;50.928;7.084;2022-07-29T04:21:39;19.80;58.90
37560;DHT22;23398;50.928;7.084;2022-07-29T04:24:06;19.80;58.80
37560;DHT22;23398;50.928;7.084;2022-07-29T04:26:32;19.90;58.70
37560;DHT22;23398;50.928;7.084;2022-07-29T04:28:59;20.00;58.60
37560;DHT22;23398;50.928;7.084;2022-07-29T04:31:24;20.00;58.60
37560;DHT22;23398;50.928;7.084;2022-07-29T04:33:50;20.10;58.30
37560;DHT22;23398;50.928;7.084;2022-07-29T04:36:15;20.10;58.00
37560;DHT22;23398;50.928;7.084;2022-07-29T04:38:41;20.20;57.90
37560;DHT22;23398;50.928;7.084;2022-07-29T04:41:06;20.30;57.80
37560;DHT22;23398;50.928;7.084;2022-07-29T04:43:34;20.30;57.50
37560;DHT22;23398;50.928;7.084;2022-07-29T04:45:59;20.40;57.40
37560;DHT22;23398;50.928;7.084;2022-07-29T04:48:25;20.50;57.20
37560;DHT22;23398;50.928;7.084;2022-07-29T04:50:51;20.50;57.10
37560;DHT22;23398;50.928;7.084;2022-07-29T04:53:17;20.60;56.90
37560;DHT22;23398;50.928;7.084;2022-07-29T04:55:43;20.60;56.70
37560;DHT22;23398;50.928;7.084;2022-07-29T04:58:08;20.70;56.60
37560;DHT22;23398;50.928;7.084;2022-07-29T05:00:34;20.80;56.50
37560;DHT22;23398;50.928;7.084;2022-07-29T05:03:00;21.00;56.60
37560;DHT22;23398;50.928;7.084;2022-07-29T05:05:25;20.90;56.50
37560;DHT22;23398;50.928;7.084;2022-07-29T05:07:51;21.00;56.40
37560;DHT22;23398;50.928;7.084;2022-07-29T05:10:16;21.10;56.40
37560;DHT22;23398;50.928;7.084;2022-07-29T05:12:42;21.20;56.10
37560;DHT22;23398;50.928;7.084;2022-07-29T05:15:08;21.30;56.00
37560;DHT22;23398;50.928;7.084;2022-07-29T05:17:33;21.40;56.20
37560;DHT22;23398;50.928;7.084;2022-07-29T05:19:59;21.50;56.20
37560;DHT22;23398;50.928;7.084;2022-07-29T05:22:25;21.60;55.70
37560;DHT22;23398;50.928;7.084;2022-07-29T05:24:50;21.70;55.40
37560;DHT22;23398;50.928;7.084;2022-07-29T05:27:16;21.80;55.20
37560;DHT22;23398;50.928;7.084;2022-07-29T05:29:41;21.90;55.60
37560;DHT22;23398;50.928;7.084;2022-07-29T05:32:07;22.00;55.40
37560;DHT22;23398;50.928;7.084;2022-07-29T05:34:32;22.10;55.40
37560;DHT22;23398;50.928;7.084;2022-07-29T05:36:58;22.20;55.30
37560;DHT22;23398;50.928;7.084;2022-07-29T05:39:24;22.40;55.00
37560;DHT22;23398;50.928;7.084;2022-07-29T05:41:49;22.40;54.60
37560;DHT22;23398;50.928;7.084;2022-07-29T05:44:15;22.60;54.40
37560;DHT22;23398;50.928;7.084;2022-07-29T05:46:41;22.70;54.20
37560;DHT22;23398;50.928;7.084;2022-07-29T05:49:06;22.90;54.10
37560;DHT22;23398;50.928;7.084;2022-07-29T05:51:35;23.00;53.80
37560;DHT22;23398;50.928;7.084;2022-07-29T05:54:01;23.20;53.60
37560;DHT22;23398;50.928;7.084;2022-07-29T05:56:27;23.30;53.40
37560;DHT22;23398;50.928;7.084;2022-07-29T05:58:53;23.40;53.50
37560;DHT22;23398;50.928;7.084;2022-07-29T06:01:18;23.50;53.60
37560;DHT22;23398;50.928;7.084;2022-07-29T06:03:44;23.70;53.60
37560;DHT22;23398;50.928;7.084;2022-07-29T06:06:10;23.80;53.40
37560;DHT22;23398;50.928;7.084;2022-07-29T06:08:36;24.00;53.70
37560;DHT22;23398;50.928;7.084;2022-07-29T06:11:03;24.20;53.30
37560;DHT22;23398;50.928;7.084;2022-07-29T06:13:29;24.40;53.10
37560;DHT22;23398;50.928;7.084;2022-07-29T06:15:55;24.50;52.70
37560;DHT22;23398;50.928;7.084;2022-07-29T06:18:20;24.70;52.40
37560;DHT22;23398;50.928;7.084;2022-07-29T06:20:52;24.80;52.10
37560;DHT22;23398;50.928;7.084;2022-07-29T06:23:18;25.00;52.00
37560;DHT22;23398;50.928;7.084;2022-07-29T06:25:44;25.30;52.00
37560;DHT22;23398;50.928;7.084;2022-07-29T06:28:09;25.40;51.30
37560;DHT22;23398;50.928;7.084;2022-07-29T06:30:35;25.60;50.70
37560;DHT22;23398;50.928;7.084;2022-07-29T06:33:01;25.80;50.20
37560;DHT22;23398;50.928;7.084;2022-07-29T06:35:27;26.00;49.80
37560;DHT22;23398;50.928;7.084;2022-07-29T06:37:53;26.20;49.40
37560;DHT22;23398;50.928;7.084;2022-07-29T06:40:19;26.40;49.40
37560;DHT22;23398;50.928;7.084;2022-07-29T06:43:03;26.50;49.30
37560;DHT22;23398;50.928;7.084;2022-07-29T06:45:28;26.70;48.90
37560;DHT22;23398;50.928;7.084;2022-07-29T06:47:54;26.90;48.90
37560;DHT22;23398;50.928;7.084;2022-07-29T06:50:20;27.00;48.20
37560;DHT22;23398;50.928;7.084;2022-07-29T06:52:47;27.20;47.50
37560;DHT22;23398;50.928;7.084;2022-07-29T06:55:13;27.30;47.60
37560;DHT22;23398;50.928;7.084;2022-07-29T06:57:39;27.40;47.60
37560;DHT22;23398;50.928;7.084;2022-07-29T07:00:05;27.50;47.60
37560;DHT22;23398;50.928;7.084;2022-07-29T07:02:31;27.40;46.10
37560;DHT22;23398;50.928;7.084;2022-07-29T07:04:57;27.50;46.40
37560;DHT22;23398;50.928;7.084;2022-07-29T07:07:24;27.50;46.80
37560;DHT22;23398;50.928;7.084;2022-07-29T07:09:49;27.60;46.40
37560;DHT22;23398;50.928;7.084;2022-07-29T07:12:15;27.70;46.20
37560;DHT22;23398;50.928;7.084;2022-07-29T07:14:41;27.80;46.10
37560;DHT22;23398;50.928;7.084;2022-07-29T07:17:06;27.70;45.80
37560;DHT22;23398;50.928;7.084;2022-07-29T07:19:35;27.80;46.30
37560;DHT22;23398;50.928;7.084;2022-07-29T07:22:01;27.80;46.00
37560;DHT22;23398;50.928;7.084;2022-07-29T07:24:27;27.90;46.10
37560;DHT22;23398;50.928;7.084;2022-07-29T07:26:52;27.80;46.20
37560;DHT22;23398;50.928;7.084;2022-07-29T07:29:18;27.80;46.20
37560;DHT22;23398;50.928;7.084;2022-07-29T07:31:44;27.90;46.40
37560;DHT22;23398;50.928;7.084;2022-07-29T07:34:09;28.00;46.40
37560;DHT22;23398;50.928;7.084;2022-07-29T07:36:35;28.00;46.50
37560;DHT22;23398;50.928;7.084;2022-07-29T07:39:00;28.10;46.40
37560;DHT22;23398;50.928;7.084;2022-07-29T07:41:26;28.30;46.20
37560;DHT22;23398;50.928;7.084;2022-07-29T07:43:51;28.50;45.80
37560;DHT22;23398;50.928;7.084;2022-07-29T07:46:17;28.70;45.40
37560;DHT22;23398;50.928;7.084;2022-07-29T07:48:43;28.80;45.00
37560;DHT22;23398;50.928;7.084;2022-07-29T07:51:08;29.00;44.40
37560;DHT22;23398;50.928;7.084;2022-07-29T07:53:34;29.00;44.00
37560;DHT22;23398;50.928;7.084;2022-07-29T07:56:00;29.10;44.40
37560;DHT22;23398;50.928;7.084;2022-07-29T07:58:27;29.10;44.30
37560;DHT22;23398;50.928;7.084;2022-07-29T08:00:52;29.10;44.40
37560;DHT22;23398;50.928;7.084;2022-07-29T08:03:18;29.00;44.40
37560;DHT22;23398;50.928;7.084;2022-07-29T08:05:44;28.90;44.20
37560;DHT22;23398;50.928;7.084;2022-07-29T08:08:09;28.80;44.20
37560;DHT22;23398;50.928;7.084;2022-07-29T08:10:35;28.80;44.30
37560;DHT22;23398;50.928;7.084;2022-07-29T08:13:20;28.80;44.70
37560;DHT22;23398;50.928;7.084;2022-07-29T08:15:46;28.70;44.40
37560;DHT22;23398;50.928;7.084;2022-07-29T08:18:13;28.70;44.20
37560;DHT22;23398;50.928;7.084;2022-07-29T08:20:39;28.60;44.50
37560;DHT22;23398;50.928;7.084;2022-07-29T08:23:07;28.50;44.40
37560;DHT22;23398;50.928;7.084;2022-07-29T08:25:35;28.40;44.30
37560;DHT22;23398;50.928;7.084;2022-07-29T08:28:01;28.20;44.30
37560;DHT22;23398;50.928;7.084;2022-07-29T08:30:27;28.20;44.50
37560;DHT22;23398;50.928;7.084;2022-07-29T08:32:52;28.20;44.70
37560;DHT22;23398;50.928;7.084;2022-07-29T08:35:19;28.10;44.90
37560;DHT22;23398;50.928;7.084;2022-07-29T08:37:45;28.10;44.60
37560;DHT22;23398;50.928;7.084;2022-07-29T08:40:11;28.10;44.90
37560;DHT22;23398;50.928;7.084;2022-07-29T08:42:37;28.10;45.20
37560;DHT22;23398;50.928;7.084;2022-07-29T08:45:04;28.20;44.80
37560;DHT22;23398;50.928;7.084;2022-07-29T08:47:30;28.20;44.60
37560;DHT22;23398;50.928;7.084;2022-07-29T08:49:56;28.30;44.60
37560;DHT22;23398;50.928;7.084;2022-07-29T08:52:22;28.40;44.40
37560;DHT22;23398;50.928;7.084;2022-07-29T08:54:52;28.40;44.30
37560;DHT22;23398;50.928;7.084;2022-07-29T08:57:19;28.50;44.30
37560;DHT22;23398;50.928;7.084;2022-07-29T08:59:46;28.60;43.90
37560;DHT22;23398;50.928;7.084;2022-07-29T09:02:18;28.70;43.90
37560;DHT22;23398;50.928;7.084;2022-07-29T09:04:44;28.70;44.20
37560;DHT22;23398;50.928;7.084;2022-07-29T09:07:14;28.80;43.90
37560;DHT22;23398;50.928;7.084;2022-07-29T09:09:41;28.80;44.00
37560;DHT22;23398;50.928;7.084;2022-07-29T09:12:08;28.80;44.00
37560;DHT22;23398;50.928;7.084;2022-07-29T09:14:34;28.80;44.20
37560;DHT22;23398;50.928;7.084;2022-07-29T09:17:00;28.80;44.70
37560;DHT22;23398;50.928;7.084;2022-07-29T09:19:36;28.90;44.40
37560;DHT22;23398;50.928;7.084;2022-07-29T09:22:05;28.90;44.70
37560;DHT22;23398;50.928;7.084;2022-07-29T09:27:00;29.10;44.90
37560;DHT22;23398;50.928;7.084;2022-07-29T09:29:27;29.30;45.10
37560;DHT22;23398;50.928;7.084;2022-07-29T09:31:54;29.50;45.30
37560;DHT22;23398;50.928;7.084;2022-07-29T09:34:25;29.80;45.30
37560;DHT22;23398;50.928;7.084;2022-07-29T09:36:53;30.20;45.60
37560;DHT22;23398;50.928;7.084;2022-07-29T09:39:34;30.80;45.60
37560;DHT22;23398;50.928;7.084;2022-07-29T09:42:03;31.50;44.40
37560;DHT22;23398;50.928;7.084;2022-07-29T09:44:45;32.20;43.60
37560;DHT22;23398;50.928;7.084;2022-07-29T09:47:11;33.10;43.80
37560;DHT22;23398;50.928;7.084;2022-07-29T09:49:56;33.80;41.90
37560;DHT22;23398;50.928;7.084;2022-07-29T09:52:29;35.20;41.40
37560;DHT22;23398;50.928;7.084;2022-07-29T09:55:09;36.40;40.20
37560;DHT22;23398;50.928;7.084;2022-07-29T09:57:35;37.50;38.60
37560;DHT22;23398;50.928;7.084;2022-07-29T10:00:03;38.40;36.60
37560;DHT22;23398;50.928;7.084;2022-07-29T10:02:32;39.20;34.50
37560;DHT22;23398;50.928;7.084;2022-07-29T10:04:59;39.60;33.10
37560;DHT22;23398;50.928;7.084;2022-07-29T10:07:26;39.80;32.60
37560;DHT22;23398;50.928;7.084;2022-07-29T10:09:56;39.80;31.80
37560;DHT22;23398;50.928;7.084;2022-07-29T10:12:23;39.60;30.90
37560;DHT22;23398;50.928;7.084;2022-07-29T10:14:49;39.40;31.50
37560;DHT22;23398;50.928;7.084;2022-07-29T10:17:16;39.20;31.60
37560;DHT22;23398;50.928;7.084;2022-07-29T10:19:42;38.80;31.80
37560;DHT22;23398;50.928;7.084;2022-07-29T10:22:09;38.40;32.00
37560;DHT22;23398;50.928;7.084;2022-07-29T10:24:36;38.00;32.50
37560;DHT22;23398;50.928;7.084;2022-07-29T10:27:04;37.50;32.80
37560;DHT22;23398;50.928;7.084;2022-07-29T10:29:30;37.20;33.30
37560;DHT22;23398;50.928;7.084;2022-07-29T10:38:05;36.10;34.90
37560;DHT22;23398;50.928;7.084;2022-07-29T10:44:13;35.40;35.30
37560;DHT22;23398;50.928;7.084;2022-07-29T10:46:40;35.00;36.20
37560;DHT22;23398;50.928;7.084;2022-07-29T10:49:06;34.90;36.60
37560;DHT22;23398;50.928;7.084;2022-07-29T10:54:17;34.50;36.40
37560;DHT22;23398;50.928;7.084;2022-07-29T10:56:43;34.40;37.10
37560;DHT22;23398;50.928;7.084;2022-07-29T11:01:48;33.90;38.20
37560;DHT22;23398;50.928;7.084;2022-07-29T11:04:15;33.70;37.70
37560;DHT22;23398;50.928;7.084;2022-07-29T11:09:32;33.40;38.10
37560;DHT22;23398;50.928;7.084;2022-07-29T11:11:57;33.30;38.60
37560;DHT22;23398;50.928;7.084;2022-07-29T11:17:17;33.20;39.20
37560;DHT22;23398;50.928;7.084;2022-07-29T11:19:43;33.20;38.80
37560;DHT22;23398;50.928;7.084;2022-07-29T11:22:10;33.20;38.00
37560;DHT22;23398;50.928;7.084;2022-07-29T11:24:36;33.20;38.40
37560;DHT22;23398;50.928;7.084;2022-07-29T11:27:11;33.20;38.70
37560;DHT22;23398;50.928;7.084;2022-07-29T11:32:15;33.20;38.10
37560;DHT22;23398;50.928;7.084;2022-07-29T11:34:41;33.20;38.30
37560;DHT22;23398;50.928;7.084;2022-07-29T11:39:46;33.20;38.00
37560;DHT22;23398;50.928;7.084;2022-07-29T11:44:57;33.20;37.70
37560;DHT22;23398;50.928;7.084;2022-07-29T11:47:24;33.10;38.50
37560;DHT22;23398;50.928;7.084;2022-07-29T11:49:50;33.00;38.50
37560;DHT22;23398;50.928;7.084;2022-07-29T11:52:20;33.00;38.40
37560;DHT22;23398;50.928;7.084;2022-07-29T11:54:48;32.90;38.90
37560;DHT22;23398;50.928;7.084;2022-07-29T11:57:18;32.80;38.30
37560;DHT22;23398;50.928;7.084;2022-07-29T11:59:45;32.80;38.40
37560;DHT22;23398;50.928;7.084;2022-07-29T12:02:12;32.80;38.10
37560;DHT22;23398;50.928;7.084;2022-07-29T12:04:55;32.70;38.20
37560;DHT22;23398;50.928;7.084;2022-07-29T12:07:29;32.70;38.20
37560;DHT22;23398;50.928;7.084;2022-07-29T12:09:54;32.70;38.60
37560;DHT22;23398;50.928;7.084;2022-07-29T12:12:21;32.70;39.00
37560;DHT22;23398;50.928;7.084;2022-07-29T12:14:47;32.60;38.70
37560;DHT22;23398;50.928;7.084;2022-07-29T12:17:29;32.60;38.60
37560;DHT22;23398;50.928;7.084;2022-07-29T12:19:58;32.50;38.90
37560;DHT22;23398;50.928;7.084;2022-07-29T12:22:36;32.50;38.50
37560;DHT22;23398;50.928;7.084;2022-07-29T12:25:08;32.50;38.60
37560;DHT22;23398;50.928;7.084;2022-07-29T12:27:36;32.40;38.90
37560;DHT22;23398;50.928;7.084;2022-07-29T12:30:13;32.30;38.60
37560;DHT22;23398;50.928;7.084;2022-07-29T12:32:45;32.30;38.40
37560;DHT22;23398;50.928;7.084;2022-07-29T12:35:16;32.20;38.60
37560;DHT22;23398;50.928;7.084;2022-07-29T12:37:45;32.10;38.20
37560;DHT22;23398;50.928;7.084;2022-07-29T12:40:14;32.00;37.60
37560;DHT22;23398;50.928;7.084;2022-07-29T12:42:41;32.00;37.60
37560;DHT22;23398;50.928;7.084;2022-07-29T12:45:07;31.90;37.70
37560;DHT22;23398;50.928;7.084;2022-07-29T12:47:33;31.80;37.70
37560;DHT22;23398;50.928;7.084;2022-07-29T12:50:16;31.70;38.00
37560;DHT22;23398;50.928;7.084;2022-07-29T12:52:44;31.60;38.40
37560;DHT22;23398;50.928;7.084;2022-07-29T12:55:10;31.60;38.00
37560;DHT22;23398;50.928;7.084;2022-07-29T12:57:46;31.50;38.20
37560;DHT22;23398;50.928;7.084;2022-07-29T13:00:13;31.50;38.10
37560;DHT22;23398;50.928;7.084;2022-07-29T13:02:41;31.50;38.30
37560;DHT22;23398;50.928;7.084;2022-07-29T13:05:08;31.50;38.50
37560;DHT22;23398;50.928;7.084;2022-07-29T13:07:35;31.50;38.10
37560;DHT22;23398;50.928;7.084;2022-07-29T13:12:36;31.60;38.10
37560;DHT22;23398;50.928;7.084;2022-07-29T13:15:13;31.60;38.10
37560;DHT22;23398;50.928;7.084;2022-07-29T13:17:42;31.60;38.10
37560;DHT22;23398;50.928;7.084;2022-07-29T13:20:10;31.60;38.30
37560;DHT22;23398;50.928;7.084;2022-07-29T13:22:41;31.60;38.10
37560;DHT22;23398;50.928;7.084;2022-07-29T13:25:08;31.70;37.80
37560;DHT22;23398;50.928;7.084;2022-07-29T13:27:37;31.70;37.90
37560;DHT22;23398;50.928;7.084;2022-07-29T13:30:08;31.70;37.90
37560;DHT22;23398;50.928;7.084;2022-07-29T13:32:35;31.70;38.00
37560;DHT22;23398;50.928;7.084;2022-07-29T13:35:06;31.80;38.20
37560;DHT22;23398;50.928;7.084;2022-07-29T13:37:33;31.80;38.50
37560;DHT22;23398;50.928;7.084;2022-07-29T13:40:00;31.90;38.10
37560;DHT22;23398;50.928;7.084;2022-07-29T13:42:28;32.00;37.80
37560;DHT22;23398;50.928;7.084;2022-07-29T13:44:54;32.10;37.50
37560;DHT22;23398;50.928;7.084;2022-07-29T13:47:20;32.20;37.80
37560;DHT22;23398;50.928;7.084;2022-07-29T13:49:47;32.20;37.80
37560;DHT22;23398;50.928;7.084;2022-07-29T13:52:12;32.20;37.60
37560;DHT22;23398;50.928;7.084;2022-07-29T13:54:38;32.30;37.50
37560;DHT22;23398;50.928;7.084;2022-07-29T13:57:04;32.30;37.20
37560;DHT22;23398;50.928;7.084;2022-07-29T13:59:30;32.30;36.80
37560;DHT22;23398;50.928;7.084;2022-07-29T14:01:56;32.30;37.20
37560;DHT22;23398;50.928;7.084;2022-07-29T14:04:22;32.20;37.40
37560;DHT22;23398;50.928;7.084;2022-07-29T14:06:51;32.20;37.40
37560;DHT22;23398;50.928;7.084;2022-07-29T14:09:17;32.10;38.00
37560;DHT22;23398;50.928;7.084;2022-07-29T14:11:43;32.00;38.20
37560;DHT22;23398;50.928;7.084;2022-07-29T14:14:09;31.90;38.20
37560;DHT22;23398;50.928;7.084;2022-07-29T14:16:35;31.80;38.00
37560;DHT22;23398;50.928;7.084;2022-07-29T14:19:01;31.70;38.20
37560;DHT22;23398;50.928;7.084;2022-07-29T14:21:27;31.60;38.70
37560;DHT22;23398;50.928;7.084;2022-07-29T14:23:52;31.50;38.20
37560;DHT22;23398;50.928;7.084;2022-07-29T14:26:20;31.40;38.30
37560;DHT22;23398;50.928;7.084;2022-07-29T14:28:46;31.20;38.90
37560;DHT22;23398;50.928;7.084;2022-07-29T14:31:11;31.20;39.30
37560;DHT22;23398;50.928;7.084;2022-07-29T14:33:37;31.10;39.50
37560;DHT22;23398;50.928;7.084;2022-07-29T14:36:03;31.10;40.60
37560;DHT22;23398;50.928;7.084;2022-07-29T14:38:28;31.00;39.70
37560;DHT22;23398;50.928;7.084;2022-07-29T14:40:54;31.00;39.80
37560;DHT22;23398;50.928;7.084;2022-07-29T14:43:19;31.00;40.00
37560;DHT22;23398;50.928;7.084;2022-07-29T14:45:45;30.90;40.80
37560;DHT22;23398;50.928;7.084;2022-07-29T14:48:11;30.90;40.10
37560;DHT22;23398;50.928;7.084;2022-07-29T14:50:37;30.80;40.10
37560;DHT22;23398;50.928;7.084;2022-07-29T14:53:02;30.70;40.40
37560;DHT22;23398;50.928;7.084;2022-07-29T14:55:28;30.70;40.40
37560;DHT22;23398;50.928;7.084;2022-07-29T14:57:54;30.60;40.30
37560;DHT22;23398;50.928;7.084;2022-07-29T15:00:20;30.50;40.30
37560;DHT22;23398;50.928;7.084;2022-07-29T15:02:47;30.50;40.30
37560;DHT22;23398;50.928;7.084;2022-07-29T15:05:12;30.40;40.70
37560;DHT22;23398;50.928;7.084;2022-07-29T15:07:38;30.40;40.70
37560;DHT22;23398;50.928;7.084;2022-07-29T15:10:05;30.30;40.20
37560;DHT22;23398;50.928;7.084;2022-07-29T15:12:31;30.30;40.60
37560;DHT22;23398;50.928;7.084;2022-07-29T15:14:57;30.30;41.10
37560;DHT22;23398;50.928;7.084;2022-07-29T15:17:23;30.30;41.00
37560;DHT22;23398;50.928;7.084;2022-07-29T15:19:48;30.30;41.40
37560;DHT22;23398;50.928;7.084;2022-07-29T15:22:14;30.20;41.30
37560;DHT22;23398;50.928;7.084;2022-07-29T15:24:39;30.20;41.40
37560;DHT22;23398;50.928;7.084;2022-07-29T15:27:05;30.20;40.90
37560;DHT22;23398;50.928;7.084;2022-07-29T15:29:30;30.10;41.20
37560;DHT22;23398;50.928;7.084;2022-07-29T15:31:56;30.10;41.30
37560;DHT22;23398;50.928;7.084;2022-07-29T15:34:22;30.10;41.00
37560;DHT22;23398;50.928;7.084;2022-07-29T15:36:50;30.10;41.30
37560;DHT22;23398;50.928;7.084;2022-07-29T15:39:16;30.00;41.00
37560;DHT22;23398;50.928;7.084;2022-07-29T15:41:41;29.90;41.00
37560;DHT22;23398;50.928;7.084;2022-07-29T15:44:07;29.80;41.50
37560;DHT22;23398;50.928;7.084;2022-07-29T15:46:33;29.80;41.30
37560;DHT22;23398;50.928;7.084;2022-07-29T15:49:17;29.70;41.50
37560;DHT22;23398;50.928;7.084;2022-07-29T15:51:43;29.60;41.50
37560;DHT22;23398;50.928;7.084;2022-07-29T15:54:09;29.60;41.70
37560;DHT22;23398;50.928;7.084;2022-07-29T15:56:35;29.50;41.60
37560;DHT22;23398;50.928;7.084;2022-07-29T15:59:00;29.50;41.80
37560;DHT22;23398;50.928;7.084;2022-07-29T16:01:26;29.40;42.00
37560;DHT22;23398;50.928;7.084;2022-07-29T16:03:52;29.40;41.50
37560;DHT22;23398;50.928;7.084;2022-07-29T16:06:18;29.40;41.20
37560;DHT22;23398;50.928;7.084;2022-07-29T16:08:43;29.40;41.30
37560;DHT22;23398;50.928;7.084;2022-07-29T16:11:09;29.30;40.90
37560;DHT22;23398;50.928;7.084;2022-07-29T16:13:34;29.30;41.20
37560;DHT22;23398;50.928;7.084;2022-07-29T16:16:00;29.30;41.20
37560;DHT22;23398;50.928;7.084;2022-07-29T16:18:26;29.20;41.10
37560;DHT22;23398;50.928;7.084;2022-07-29T16:20:51;29.20;41.20
37560;DHT22;23398;50.928;7.084;2022-07-29T16:23:17;29.20;41.10
37560;DHT22;23398;50.928;7.084;2022-07-29T16:25:42;29.10;41.20